Terminal Aerodrome Forecast
Issued by NWS

Home | Current Version | Previous Version | Text Only | Print | Product List | Glossary On
Versions: 1 2 3 4 5 6 7 8 9 10 11 12 13 14 15 16 17 18 19 20 21 22 23 24 25 26 27 28 29 30 31 32
000
FTUS41 KCLE 231700
TAFFDY
TAF
KFDY 231730Z 2318/2418 28004KT P6SM SCT015
      TEMPO 2318/2320 BKN015
     FM232000 26006KT P6SM SCT250
     FM232300 23003KT P6SM BKN250
     FM240600 VRB03KT P6SM BKN100
     FM241400 25006KT P6SM SCT045 BKN100=

USA.gov is the U.S. government's official web portal to all federal, state and local government web resources and services.